Time;durP1;ratioP1;P1;durP2;ratioP2;P2;SDS_P1;SDS_P2;PMS_P1;PMS_P2;Temp;Humidity;BMP_temperature;BMP_pressure;BME280_temperature;BME280_humidity;BME280_pressure;Samples;Min_cycle;Max_cycle;Signal;HPM_P1;HPM_P2
2023/12/10 00:02:01;;;;;;;40.17;6.43;;;;;;;;;;4999763;28;20053;-57
2023/12/10 00:04:27;;;;;;;34.45;5.72;;;;;;;;;;5001283;28;20051;-57
2023/12/10 00:06:53;;;;;;;41.22;6.22;;;;;;;;;;4999653;28;20038;-57
2023/12/10 00:09:19;;;;;;;38.90;6.03;;;;;;;;;;4998464;28;21055;-57
2023/12/10 00:11:45;;;;;;;31.33;5.05;;;;;;;;;;5001551;28;20053;-56
2023/12/10 00:14:11;;;;;;;33.15;5.60;;;;;;;;;;4998795;28;20376;-57
2023/12/10 00:16:37;;;;;;;35.60;5.38;;;;;;;;;;4982618;28;20042;-56
2023/12/10 00:19:03;;;;;;;32.47;5.43;;;;;;;;;;4999089;28;20057;-55
2023/12/10 00:21:29;;;;;;;43.97;6.45;;;;;;;;;;4999790;28;20069;-56
2023/12/10 00:23:55;;;;;;;29.15;5.53;;;;;;;;;;4998523;28;20344;-55
2023/12/10 00:26:21;;;;;;;43.75;6.05;;;;;;;;;;4996343;28;20732;-54
2023/12/10 00:28:47;;;;;;;32.78;6.35;;;;;;;;;;4996941;28;20044;-55
2023/12/10 00:31:13;;;;;;;31.95;5.28;;;;;;;;;;4991038;28;20099;-56
2023/12/10 00:33:39;;;;;;;40.22;6.70;;;;;;;;;;4980977;28;21209;-55
2023/12/10 00:36:05;;;;;;;31.80;4.97;;;;;;;;;;5000539;28;20282;-57
2023/12/10 00:38:31;;;;;;;37.83;6.82;;;;;;;;;;4994093;28;20133;-55
2023/12/10 00:40:57;;;;;;;38.60;6.25;;;;;;;;;;4999977;28;20041;-57
2023/12/10 00:43:23;;;;;;;43.60;6.32;;;;;;;;;;4998390;28;20034;-57
2023/12/10 00:45:52;;;;;;;41.10;5.68;;;;;;;;;;4999238;28;20580;-56
2023/12/10 00:48:18;;;;;;;39.92;6.05;;;;;;;;;;4996200;28;20037;-55
2023/12/10 00:50:44;;;;;;;34.13;5.88;;;;;;;;;;5002669;28;20061;-55
2023/12/10 00:53:10;;;;;;;41.20;5.72;;;;;;;;;;5000071;28;20490;-55
2023/12/10 00:55:36;;;;;;;38.47;6.03;;;;;;;;;;5004104;28;20097;-55
2023/12/10 00:58:01;;;;;;;37.70;5.88;;;;;;;;;;4999050;28;20050;-53
2023/12/10 01:00:28;;;;;;;40.60;6.38;;;;;;;;;;4996766;28;20438;-57
2023/12/10 01:02:55;;;;;;;41.20;6.15;;;;;;;;;;4999500;28;20046;-56
2023/12/10 01:05:21;;;;;;;38.40;5.72;;;;;;;;;;4998411;28;20485;-56
2023/12/10 01:07:46;;;;;;;41.53;5.93;;;;;;;;;;5000639;28;20040;-56
2023/12/10 01:10:12;;;;;;;42.75;6.05;;;;;;;;;;4996906;28;20386;-57
2023/12/10 01:12:39;;;;;;;39.95;5.70;;;;;;;;;;5001048;28;20426;-55
2023/12/10 01:15:05;;;;;;;40.88;5.45;;;;;;;;;;4990722;28;20030;-54
2023/12/10 01:17:31;;;;;;;36.72;5.90;;;;;;;;;;4996223;28;20307;-53
2023/12/10 01:19:59;;;;;;;36.40;5.65;;;;;;;;;;4999666;28;20115;-56
2023/12/10 01:22:25;;;;;;;45.92;5.80;;;;;;;;;;4997879;28;20048;-55
2023/12/10 01:24:52;;;;;;;42.47;6.03;;;;;;;;;;4999319;28;20033;-54
2023/12/10 01:27:18;;;;;;;38.38;4.97;;;;;;;;;;4996287;28;20121;-55
2023/12/10 01:29:44;;;;;;;39.47;6.05;;;;;;;;;;4998228;28;20101;-55
2023/12/10 01:32:10;;;;;;;32.20;5.13;;;;;;;;;;4994577;28;20343;-55
2023/12/10 01:34:37;;;;;;;36.85;6.07;;;;;;;;;;4994851;28;20571;-55
2023/12/10 01:37:03;;;;;;;40.90;6.03;;;;;;;;;;4997371;28;20042;-56
2023/12/10 01:39:32;;;;;;;36.30;5.22;;;;;;;;;;4994425;28;20069;-54
2023/12/10 01:41:58;;;;;;;38.20;5.30;;;;;;;;;;4996600;28;20541;-54
2023/12/10 01:44:24;;;;;;;40.30;5.97;;;;;;;;;;4996545;28;20037;-56
2023/12/10 01:46:50;;;;;;;36.05;5.22;;;;;;;;;;4992935;28;20042;-55
2023/12/10 01:49:17;;;;;;;33.28;5.20;;;;;;;;;;4990165;28;20120;-55
2023/12/10 01:51:44;;;;;;;33.55;5.38;;;;;;;;;;4999264;28;20041;-55
2023/12/10 01:54:19;;;;;;;33.20;4.55;;;;;;;;;;4993311;28;20192;-54
2023/12/10 01:56:45;;;;;;;35.30;5.68;;;;;;;;;;4998786;28;20030;-54
2023/12/10 01:59:11;;;;;;;35.85;5.50;;;;;;;;;;4991868;28;20034;-55
2023/12/10 02:01:37;;;;;;;35.38;5.20;;;;;;;;;;4992845;28;20466;-52
2023/12/10 02:04:05;;;;;;;41.97;6.28;;;;;;;;;;4997213;28;20076;-53
2023/12/10 02:06:32;;;;;;;30.52;5.32;;;;;;;;;;4989655;28;20045;-52
2023/12/10 02:08:59;;;;;;;29.92;4.93;;;;;;;;;;4994938;28;20654;-55
2023/12/10 02:11:25;;;;;;;28.73;4.65;;;;;;;;;;4993991;28;20038;-54
2023/12/10 02:13:51;;;;;;;35.00;5.90;;;;;;;;;;4992375;28;20038;-53
2023/12/10 02:16:17;;;;;;;39.47;6.00;;;;;;;;;;4996816;28;20551;-53
2023/12/10 02:18:44;;;;;;;34.33;5.57;;;;;;;;;;4991554;28;20054;-54
2023/12/10 02:21:10;;;;;;;32.22;4.55;;;;;;;;;;4994518;28;20532;-54
2023/12/10 02:23:55;;;;;;;31.17;4.93;;;;;;;;;;4991920;28;20050;-55
2023/12/10 02:26:21;;;;;;;39.40;5.40;;;;;;;;;;4993538;28;20458;-53
2023/12/10 02:28:47;;;;;;;38.50;5.65;;;;;;;;;;4994295;28;20045;-53
2023/12/10 02:31:13;;;;;;;32.47;5.18;;;;;;;;;;4994653;28;20042;-55
2023/12/10 02:33:39;;;;;;;31.45;4.72;;;;;;;;;;4995206;28;20057;-54
2023/12/10 02:36:05;;;;;;;28.42;4.85;;;;;;;;;;4994929;28;20033;-53
2023/12/10 02:38:31;;;;;;;28.27;4.47;;;;;;;;;;4995026;28;20046;-52
2023/12/10 02:40:57;;;;;;;35.42;4.40;;;;;;;;;;4994705;28;20037;-54
2023/12/10 02:43:23;;;;;;;26.80;4.20;;;;;;;;;;4995015;28;20155;-54
2023/12/10 02:45:49;;;;;;;28.77;4.78;;;;;;;;;;4992624;28;20038;-56
2023/12/10 02:48:17;;;;;;;30.83;4.28;;;;;;;;;;4993207;28;20474;-56
2023/12/10 02:50:43;;;;;;;25.95;4.03;;;;;;;;;;4996409;28;20046;-55
2023/12/10 02:53:09;;;;;;;33.08;4.75;;;;;;;;;;4989941;28;20038;-52
2023/12/10 02:55:35;;;;;;;26.67;4.25;;;;;;;;;;4996638;28;20042;-55
2023/12/10 02:58:01;;;;;;;30.15;5.22;;;;;;;;;;4995465;28;20505;-53
2023/12/10 03:00:27;;;;;;;34.13;5.25;;;;;;;;;;4994757;28;20045;-55
2023/12/10 03:02:53;;;;;;;29.83;5.32;;;;;;;;;;4991652;28;20469;-51
2023/12/10 03:05:19;;;;;;;29.17;5.00;;;;;;;;;;4990277;28;20038;-54
2023/12/10 03:07:44;;;;;;;31.30;4.43;;;;;;;;;;4995473;28;20030;-54
2023/12/10 03:10:10;;;;;;;28.23;5.20;;;;;;;;;;4994513;28;20114;-54
2023/12/10 03:12:36;;;;;;;31.42;3.70;;;;;;;;;;4997709;28;20037;-55
2023/12/10 03:15:02;;;;;;;22.80;3.83;;;;;;;;;;4992007;28;20038;-53
2023/12/10 03:17:28;;;;;;;25.52;3.40;;;;;;;;;;4996323;28;20049;-53
2023/12/10 03:19:54;;;;;;;30.58;4.32;;;;;;;;;;5004687;28;20050;-54
2023/12/10 03:22:20;;;;;;;24.70;3.97;;;;;;;;;;4982616;28;20050;-53
2023/12/10 03:24:46;;;;;;;34.33;4.18;;;;;;;;;;4999178;28;20029;-54
2023/12/10 03:27:12;;;;;;;34.25;5.70;;;;;;;;;;4999944;28;20037;-53
2023/12/10 03:29:38;;;;;;;34.08;4.57;;;;;;;;;;4997244;28;20049;-55
2023/12/10 03:32:05;;;;;;;26.17;4.15;;;;;;;;;;4997769;28;20849;-53
2023/12/10 03:34:31;;;;;;;25.27;3.72;;;;;;;;;;5003634;28;20045;-53
2023/12/10 03:36:56;;;;;;;26.40;4.80;;;;;;;;;;5003148;28;20453;-54
2023/12/10 03:39:22;;;;;;;30.55;4.38;;;;;;;;;;5003141;28;20041;-53
2023/12/10 03:41:49;;;;;;;29.05;5.05;;;;;;;;;;5006301;28;20037;-55
2023/12/10 03:44:15;;;;;;;31.40;4.63;;;;;;;;;;5000620;28;20041;-54
2023/12/10 03:46:41;;;;;;;26.48;3.88;;;;;;;;;;5001696;28;20045;-53
2023/12/10 03:49:07;;;;;;;26.90;4.03;;;;;;;;;;5003117;28;20033;-50
2023/12/10 03:51:33;;;;;;;28.23;4.47;;;;;;;;;;5008086;28;20476;-55
2023/12/10 03:54:00;;;;;;;33.50;4.82;;;;;;;;;;5004455;28;20439;-54
2023/12/10 03:56:26;;;;;;;22.05;3.75;;;;;;;;;;5001084;28;20037;-55
2023/12/10 03:58:52;;;;;;;33.95;4.90;;;;;;;;;;5004432;28;20492;-54
2023/12/10 04:01:18;;;;;;;27.77;4.03;;;;;;;;;;4997971;28;20046;-53
2023/12/10 04:03:45;;;;;;;35.08;4.70;;;;;;;;;;4999492;28;20033;-51
2023/12/10 04:06:10;;;;;;;28.08;4.22;;;;;;;;;;4980959;28;20037;-55
2023/12/10 04:08:36;;;;;;;34.80;4.78;;;;;;;;;;5000493;28;20437;-51
2023/12/10 04:11:03;;;;;;;29.60;3.65;;;;;;;;;;4981536;28;20390;-56
2023/12/10 04:13:30;;;;;;;28.15;3.97;;;;;;;;;;4999652;28;20049;-55
2023/12/10 04:15:56;;;;;;;32.08;5.03;;;;;;;;;;4994416;28;20037;-56
2023/12/10 04:18:22;;;;;;;28.38;4.65;;;;;;;;;;5003541;28;20042;-55
2023/12/10 04:20:48;;;;;;;27.77;4.32;;;;;;;;;;4999807;28;20127;-55
2023/12/10 04:23:14;;;;;;;41.55;5.32;;;;;;;;;;4999944;28;20142;-56
2023/12/10 04:25:40;;;;;;;34.10;4.47;;;;;;;;;;5002036;28;20460;-53
2023/12/10 04:28:07;;;;;;;34.40;5.05;;;;;;;;;;4998439;28;20152;-54
2023/12/10 04:30:33;;;;;;;34.40;4.50;;;;;;;;;;5001533;28;20087;-55
2023/12/10 04:32:59;;;;;;;31.05;3.85;;;;;;;;;;5004147;28;20034;-56
2023/12/10 04:35:25;;;;;;;30.58;4.50;;;;;;;;;;5000846;28;20704;-55
2023/12/10 04:37:51;;;;;;;29.00;4.18;;;;;;;;;;5000236;28;20038;-56
2023/12/10 04:40:17;;;;;;;37.63;4.95;;;;;;;;;;4999834;28;20060;-55
2023/12/10 04:42:43;;;;;;;30.52;4.40;;;;;;;;;;5002118;28;20029;-55
2023/12/10 04:45:09;;;;;;;31.08;4.63;;;;;;;;;;5000165;28;20124;-55
2023/12/10 04:47:36;;;;;;;31.52;4.18;;;;;;;;;;4985440;28;20394;-56
2023/12/10 04:50:03;;;;;;;26.70;4.72;;;;;;;;;;5000604;28;20425;-56
2023/12/10 04:52:30;;;;;;;35.90;5.40;;;;;;;;;;5003566;28;20042;-55
2023/12/10 04:54:56;;;;;;;29.48;4.50;;;;;;;;;;5000233;28;20036;-55
2023/12/10 04:57:21;;;;;;;26.70;4.13;;;;;;;;;;5002486;28;20029;-54
2023/12/10 04:59:47;;;;;;;24.17;3.53;;;;;;;;;;5001993;28;20042;-56
2023/12/10 05:02:13;;;;;;;33.60;4.03;;;;;;;;;;4998782;28;20041;-56
2023/12/10 05:04:39;;;;;;;29.83;4.28;;;;;;;;;;4999006;28;20589;-54
2023/12/10 05:07:05;;;;;;;27.35;4.38;;;;;;;;;;4996494;28;20046;-54
2023/12/10 05:09:32;;;;;;;33.03;4.35;;;;;;;;;;4999791;28;20056;-56
2023/12/10 05:11:59;;;;;;;30.40;3.42;;;;;;;;;;5000144;28;20044;-55
2023/12/10 05:14:25;;;;;;;28.00;4.22;;;;;;;;;;4997015;28;20498;-56
2023/12/10 05:16:51;;;;;;;19.20;3.80;;;;;;;;;;4998577;28;20072;-54
2023/12/10 05:19:17;;;;;;;33.17;4.10;;;;;;;;;;4995254;28;20391;-55
2023/12/10 05:21:43;;;;;;;32.03;4.50;;;;;;;;;;5000200;28;20034;-56
2023/12/10 05:24:09;;;;;;;21.65;3.90;;;;;;;;;;4998870;28;20495;-54
2023/12/10 05:26:35;;;;;;;29.55;4.25;;;;;;;;;;4999492;28;20072;-55
2023/12/10 05:29:01;;;;;;;32.10;4.40;;;;;;;;;;4998641;28;20066;-54
2023/12/10 05:31:27;;;;;;;30.90;4.15;;;;;;;;;;4979161;28;20060;-54
2023/12/10 05:33:53;;;;;;;37.17;4.25;;;;;;;;;;4999153;28;20287;-54
2023/12/10 05:36:19;;;;;;;32.38;4.25;;;;;;;;;;4995699;28;20030;-53
2023/12/10 05:38:45;;;;;;;31.65;4.88;;;;;;;;;;4995674;28;20064;-54
2023/12/10 05:41:11;;;;;;;30.00;3.95;;;;;;;;;;5000001;28;20056;-55
2023/12/10 05:43:37;;;;;;;23.75;4.03;;;;;;;;;;4999170;28;20037;-55
2023/12/10 05:46:03;;;;;;;22.83;3.85;;;;;;;;;;5002283;28;20037;-54
2023/12/10 05:48:29;;;;;;;24.63;3.42;;;;;;;;;;5000998;28;20033;-55
2023/12/10 05:50:54;;;;;;;23.85;4.22;;;;;;;;;;5001857;28;20042;-54
2023/12/10 05:53:20;;;;;;;25.70;3.55;;;;;;;;;;4999591;28;20042;-56
2023/12/10 05:55:46;;;;;;;20.50;3.88;;;;;;;;;;5001557;28;20579;-56
2023/12/10 05:58:13;;;;;;;24.00;3.65;;;;;;;;;;4999708;28;20041;-56
2023/12/10 06:00:39;;;;;;;28.58;3.47;;;;;;;;;;5003089;28;20041;-54
2023/12/10 06:03:05;;;;;;;30.52;3.72;;;;;;;;;;4997042;28;20037;-54
2023/12/10 06:05:32;;;;;;;34.55;3.97;;;;;;;;;;5001966;28;20050;-56
2023/12/10 06:07:58;;;;;;;23.17;2.95;;;;;;;;;;4997501;28;20043;-54
2023/12/10 06:10:23;;;;;;;28.35;4.05;;;;;;;;;;5001891;28;20087;-56
2023/12/10 06:12:50;;;;;;;24.80;4.00;;;;;;;;;;5000676;28;20041;-54
2023/12/10 06:15:16;;;;;;;22.77;3.65;;;;;;;;;;5001036;28;20052;-54
2023/12/10 06:17:42;;;;;;;27.50;4.32;;;;;;;;;;5003902;28;20044;-54
2023/12/10 06:20:08;;;;;;;27.65;3.45;;;;;;;;;;5000539;28;20029;-54
2023/12/10 06:22:34;;;;;;;22.90;3.85;;;;;;;;;;5000709;28;20408;-53
2023/12/10 06:25:00;;;;;;;26.27;3.90;;;;;;;;;;5004171;28;20046;-54
2023/12/10 06:27:27;;;;;;;34.85;3.67;;;;;;;;;;4998235;28;20061;-53
2023/12/10 06:29:53;;;;;;;24.58;4.05;;;;;;;;;;4999546;28;20051;-53
2023/12/10 06:32:19;;;;;;;22.75;3.65;;;;;;;;;;4995805;28;20139;-55
2023/12/10 06:34:45;;;;;;;24.17;3.28;;;;;;;;;;4999561;28;20037;-54
2023/12/10 06:37:11;;;;;;;23.35;4.03;;;;;;;;;;4998657;28;20694;-55
2023/12/10 06:39:37;;;;;;;20.25;3.58;;;;;;;;;;4983776;28;20061;-54
2023/12/10 06:42:03;;;;;;;22.40;3.80;;;;;;;;;;4999943;28;20030;-53
2023/12/10 06:44:29;;;;;;;22.40;3.50;;;;;;;;;;4998794;28;20065;-53
2023/12/10 06:46:55;;;;;;;27.40;4.97;;;;;;;;;;5002794;28;20253;-54
2023/12/10 06:49:21;;;;;;;23.90;3.70;;;;;;;;;;5002809;28;20064;-54
2023/12/10 06:51:47;;;;;;;28.52;3.95;;;;;;;;;;4984111;28;20140;-54
2023/12/10 06:54:13;;;;;;;25.88;4.20;;;;;;;;;;4992953;28;20050;-54
2023/12/10 06:56:40;;;;;;;27.92;4.10;;;;;;;;;;4997970;28;20033;-55
2023/12/10 06:59:09;;;;;;;32.72;4.40;;;;;;;;;;4998939;28;20513;-54
2023/12/10 07:01:37;;;;;;;30.40;3.83;;;;;;;;;;4999585;28;20054;-54
2023/12/10 07:04:03;;;;;;;24.95;3.55;;;;;;;;;;5001647;28;20042;-54
2023/12/10 07:06:29;;;;;;;30.15;3.90;;;;;;;;;;4999769;28;20056;-54
2023/12/10 07:08:55;;;;;;;29.63;4.07;;;;;;;;;;4999373;28;20112;-54
2023/12/10 07:11:21;;;;;;;24.45;3.80;;;;;;;;;;5003393;28;20566;-53
2023/12/10 07:13:48;;;;;;;23.95;3.95;;;;;;;;;;5002555;28;20361;-55
2023/12/10 07:16:14;;;;;;;29.08;3.50;;;;;;;;;;4995236;28;20048;-54
2023/12/10 07:18:40;;;;;;;35.30;4.60;;;;;;;;;;5000329;28;20038;-54
2023/12/10 07:21:06;;;;;;;31.88;4.40;;;;;;;;;;4991136;28;20072;-53
2023/12/10 07:23:32;;;;;;;29.25;3.75;;;;;;;;;;4999350;28;20470;-54
2023/12/10 07:25:58;;;;;;;29.48;4.60;;;;;;;;;;5006648;28;20041;-55
2023/12/10 07:28:24;;;;;;;32.53;5.35;;;;;;;;;;4999495;28;20039;-54
2023/12/10 07:30:50;;;;;;;32.97;4.70;;;;;;;;;;5003355;28;20052;-55
2023/12/10 07:33:16;;;;;;;28.42;4.43;;;;;;;;;;5004291;28;20042;-55
2023/12/10 07:35:42;;;;;;;25.52;3.85;;;;;;;;;;4999241;28;20515;-55
2023/12/10 07:38:08;;;;;;;36.78;4.28;;;;;;;;;;5001270;28;20038;-54
2023/12/10 07:40:34;;;;;;;28.80;4.65;;;;;;;;;;5003982;28;20152;-52
2023/12/10 07:43:00;;;;;;;27.92;4.10;;;;;;;;;;5004642;28;20038;-55
2023/12/10 07:45:26;;;;;;;24.08;3.95;;;;;;;;;;5001786;28;20046;-56
2023/12/10 07:47:53;;;;;;;22.33;4.07;;;;;;;;;;5003231;28;20489;-57
2023/12/10 07:50:19;;;;;;;31.70;4.13;;;;;;;;;;4998155;28;20041;-55
2023/12/10 07:52:45;;;;;;;30.10;3.75;;;;;;;;;;5000468;28;20038;-53
2023/12/10 07:55:11;;;;;;;28.27;3.67;;;;;;;;;;5000207;28;20034;-56
2023/12/10 07:57:37;;;;;;;34.55;4.88;;;;;;;;;;5003970;28;20041;-56
2023/12/10 08:00:05;;;;;;;29.45;3.92;;;;;;;;;;4999370;28;20172;-55
2023/12/10 08:02:32;;;;;;;31.58;3.83;;;;;;;;;;4998293;28;20086;-55
2023/12/10 08:04:57;;;;;;;30.42;4.32;;;;;;;;;;5003023;28;20040;-56
2023/12/10 08:07:23;;;;;;;29.52;4.80;;;;;;;;;;4997550;28;20042;-56
2023/12/10 08:09:50;;;;;;;41.13;5.03;;;;;;;;;;5000334;28;20077;-55
2023/12/10 08:12:16;;;;;;;32.70;4.00;;;;;;;;;;5000445;28;20038;-54
2023/12/10 08:14:42;;;;;;;31.60;4.05;;;;;;;;;;5001212;28;20128;-56
2023/12/10 08:17:08;;;;;;;33.53;4.47;;;;;;;;;;4998809;28;20117;-54
2023/12/10 08:19:35;;;;;;;21.90;3.20;;;;;;;;;;4998165;28;20469;-56
2023/12/10 08:22:01;;;;;;;29.27;4.50;;;;;;;;;;5004517;28;20128;-55
2023/12/10 08:24:27;;;;;;;23.00;3.90;;;;;;;;;;5001891;28;20076;-54
2023/12/10 08:26:54;;;;;;;26.58;4.00;;;;;;;;;;5005357;28;20183;-56
2023/12/10 08:29:20;;;;;;;34.13;3.63;;;;;;;;;;5003250;28;20038;-55
2023/12/10 08:31:46;;;;;;;28.92;4.30;;;;;;;;;;5001847;28;20037;-55
2023/12/10 08:34:12;;;;;;;35.65;4.00;;;;;;;;;;5000604;28;20186;-54
2023/12/10 08:36:39;;;;;;;32.38;4.63;;;;;;;;;;5000261;28;20045;-56
2023/12/10 08:39:06;;;;;;;26.15;3.78;;;;;;;;;;4993416;28;20084;-56
2023/12/10 08:41:32;;;;;;;24.70;3.83;;;;;;;;;;5005258;28;20049;-54
2023/12/10 08:43:58;;;;;;;26.77;4.05;;;;;;;;;;5001418;28;20038;-53
2023/12/10 08:46:24;;;;;;;26.42;4.47;;;;;;;;;;4983900;28;20038;-52
2023/12/10 08:48:51;;;;;;;24.40;4.00;;;;;;;;;;5003086;28;20128;-54
2023/12/10 08:51:17;;;;;;;22.75;3.85;;;;;;;;;;5001382;28;20065;-56
2023/12/10 08:53:43;;;;;;;23.33;3.78;;;;;;;;;;4997878;28;20072;-54
2023/12/10 08:56:09;;;;;;;25.85;4.32;;;;;;;;;;4998142;28;20093;-54
2023/12/10 08:58:35;;;;;;;24.15;3.47;;;;;;;;;;5001902;28;20879;-57
2023/12/10 09:01:01;;;;;;;30.42;4.47;;;;;;;;;;4998825;28;20045;-57
2023/12/10 09:03:27;;;;;;;28.65;4.80;;;;;;;;;;5000967;28;20038;-58
2023/12/10 09:05:53;;;;;;;30.95;4.20;;;;;;;;;;5002639;28;20095;-58
2023/12/10 09:08:19;;;;;;;23.30;4.28;;;;;;;;;;4998712;28;20579;-58
2023/12/10 09:10:45;;;;;;;28.70;4.38;;;;;;;;;;5000935;28;20041;-57
2023/12/10 09:13:11;;;;;;;25.67;4.13;;;;;;;;;;5000633;28;20108;-58
2023/12/10 09:15:37;;;;;;;29.33;4.43;;;;;;;;;;4998494;28;20136;-57
2023/12/10 09:18:03;;;;;;;23.58;3.85;;;;;;;;;;5000091;28;20071;-56
2023/12/10 09:20:29;;;;;;;26.50;3.90;;;;;;;;;;5003823;28;20045;-58
2023/12/10 09:22:55;;;;;;;28.52;4.32;;;;;;;;;;5002124;28;20046;-57
2023/12/10 09:25:21;;;;;;;32.28;5.07;;;;;;;;;;5000904;28;20045;-58
2023/12/10 09:27:47;;;;;;;29.38;4.15;;;;;;;;;;5002560;28;20079;-58
2023/12/10 09:30:14;;;;;;;24.98;3.55;;;;;;;;;;5002895;28;20041;-57
2023/12/10 09:32:40;;;;;;;26.67;4.97;;;;;;;;;;5000861;28;20783;-57
2023/12/10 09:35:06;;;;;;;32.78;4.55;;;;;;;;;;5002328;28;20477;-57
2023/12/10 09:37:32;;;;;;;27.88;4.72;;;;;;;;;;4999528;28;20057;-58
2023/12/10 09:39:58;;;;;;;29.38;4.38;;;;;;;;;;5002692;28;20148;-57
2023/12/10 09:42:24;;;;;;;29.58;4.00;;;;;;;;;;4998607;28;20037;-57
2023/12/10 09:44:50;;;;;;;27.67;4.40;;;;;;;;;;5002484;28;20300;-58
2023/12/10 09:47:17;;;;;;;31.98;4.28;;;;;;;;;;5000955;28;20033;-58
2023/12/10 09:49:43;;;;;;;33.65;4.72;;;;;;;;;;4999244;28;20033;-58
2023/12/10 09:52:10;;;;;;;31.00;4.32;;;;;;;;;;4998481;28;20041;-58
2023/12/10 09:54:40;;;;;;;23.88;4.45;;;;;;;;;;5001484;28;20399;-58
2023/12/10 09:57:07;;;;;;;30.38;4.40;;;;;;;;;;5000457;28;20041;-56
2023/12/10 09:59:33;;;;;;;28.05;3.80;;;;;;;;;;5002314;28;20148;-58
2023/12/10 10:01:59;;;;;;;24.15;5.15;;;;;;;;;;4997268;28;20120;-56
2023/12/10 10:04:25;;;;;;;30.20;4.97;;;;;;;;;;5002067;28;20048;-57
2023/12/10 10:06:51;;;;;;;22.60;3.63;;;;;;;;;;5002659;28;20037;-58
2023/12/10 10:09:17;;;;;;;29.35;5.00;;;;;;;;;;4989075;28;20033;-58
2023/12/10 10:11:47;;;;;;;27.95;5.25;;;;;;;;;;5003994;28;20116;-58
2023/12/10 10:14:14;;;;;;;34.63;4.35;;;;;;;;;;5000836;28;20040;-58
2023/12/10 10:16:46;;;;;;;27.27;4.38;;;;;;;;;;5001210;28;20038;-58
2023/12/10 10:19:12;;;;;;;27.00;4.13;;;;;;;;;;4999970;28;20147;-58
2023/12/10 10:21:38;;;;;;;28.48;5.25;;;;;;;;;;4999858;28;20128;-55
2023/12/10 10:24:04;;;;;;;30.83;4.45;;;;;;;;;;4998522;28;20046;-56
2023/12/10 10:26:33;;;;;;;29.35;4.78;;;;;;;;;;4997553;28;20498;-57
2023/12/10 10:28:59;;;;;;;28.17;4.97;;;;;;;;;;4999044;28;20061;-56
2023/12/10 10:31:25;;;;;;;32.85;4.53;;;;;;;;;;4988221;28;20188;-55
2023/12/10 10:33:51;;;;;;;24.77;4.38;;;;;;;;;;4984359;28;20048;-55
2023/12/10 10:36:18;;;;;;;25.67;4.30;;;;;;;;;;4998126;28;20051;-57
2023/12/10 10:38:44;;;;;;;26.70;4.22;;;;;;;;;;4997343;28;20670;-57
2023/12/10 10:41:10;;;;;;;26.50;4.18;;;;;;;;;;5000099;28;20041;-55
2023/12/10 10:43:36;;;;;;;26.75;3.90;;;;;;;;;;4984790;28;20045;-57
2023/12/10 10:46:03;;;;;;;33.35;4.75;;;;;;;;;;4997859;28;20033;-55
2023/12/10 10:48:29;;;;;;;25.48;4.18;;;;;;;;;;4999804;28;20389;-57
2023/12/10 10:50:55;;;;;;;25.20;4.75;;;;;;;;;;5003633;28;20375;-57
2023/12/10 10:53:22;;;;;;;27.08;4.35;;;;;;;;;;4999881;28;21237;-55
2023/12/10 10:55:48;;;;;;;26.85;5.25;;;;;;;;;;5003268;28;20045;-55
2023/12/10 10:58:24;;;;;;;21.25;3.83;;;;;;;;;;4997695;28;20384;-55
2023/12/10 11:00:51;;;;;;;34.85;5.35;;;;;;;;;;5001300;28;20042;-56
2023/12/10 11:03:17;;;;;;;35.03;5.00;;;;;;;;;;4998537;28;20443;-56
2023/12/10 11:05:43;;;;;;;25.52;3.92;;;;;;;;;;4997608;28;20038;-57
2023/12/10 11:08:11;;;;;;;20.20;3.70;;;;;;;;;;4998754;28;20397;-58
2023/12/10 11:10:40;;;;;;;31.08;4.82;;;;;;;;;;4999732;28;20073;-57
2023/12/10 11:13:06;;;;;;;29.80;3.85;;;;;;;;;;4998634;28;20100;-56
2023/12/10 11:15:32;;;;;;;26.00;4.55;;;;;;;;;;4997869;28;20187;-56
2023/12/10 11:17:59;;;;;;;28.75;4.80;;;;;;;;;;5000769;28;20524;-55
2023/12/10 11:20:40;;;;;;;32.75;4.88;;;;;;;;;;4980622;28;20034;-57
2023/12/10 11:23:07;;;;;;;21.10;3.70;;;;;;;;;;4997304;28;20394;-58
2023/12/10 11:25:33;;;;;;;28.13;4.57;;;;;;;;;;5002044;28;20125;-57
2023/12/10 11:28:00;;;;;;;28.27;4.40;;;;;;;;;;4999996;28;20049;-56
2023/12/10 11:30:27;;;;;;;24.58;3.80;;;;;;;;;;4995042;28;20037;-56
2023/12/10 11:32:53;;;;;;;27.67;4.68;;;;;;;;;;5001752;28;20113;-57
2023/12/10 11:35:20;;;;;;;25.95;3.90;;;;;;;;;;4996689;28;20847;-56
2023/12/10 11:37:46;;;;;;;27.13;3.90;;;;;;;;;;4980334;28;20030;-56
2023/12/10 11:40:12;;;;;;;32.85;4.93;;;;;;;;;;4994662;28;20307;-57
2023/12/10 11:42:38;;;;;;;25.60;3.58;;;;;;;;;;4996349;28;20051;-56
2023/12/10 11:45:05;;;;;;;29.30;4.82;;;;;;;;;;4979877;28;20502;-57
2023/12/10 11:47:31;;;;;;;29.27;5.00;;;;;;;;;;4995699;28;20580;-54
2023/12/10 11:49:57;;;;;;;22.70;4.70;;;;;;;;;;4999032;28;20164;-56
2023/12/10 11:52:23;;;;;;;34.50;4.38;;;;;;;;;;4996871;28;20140;-57
2023/12/10 11:54:50;;;;;;;29.00;4.55;;;;;;;;;;4997458;28;20037;-57
2023/12/10 11:57:16;;;;;;;30.10;5.05;;;;;;;;;;4998374;28;20033;-59
2023/12/10 11:59:48;;;;;;;35.67;5.25;;;;;;;;;;4982985;28;20038;-56
2023/12/10 12:02:15;;;;;;;44.40;6.00;;;;;;;;;;4995823;28;20045;-57
2023/12/10 12:04:41;;;;;;;27.20;4.53;;;;;;;;;;5003975;28;20037;-57
2023/12/10 12:07:07;;;;;;;37.92;5.25;;;;;;;;;;4997259;28;20037;-55
2023/12/10 12:09:33;;;;;;;37.10;5.95;;;;;;;;;;4994982;28;20591;-56
2023/12/10 12:12:00;;;;;;;36.15;5.68;;;;;;;;;;4989259;28;20180;-58
2023/12/10 12:14:26;;;;;;;31.60;4.82;;;;;;;;;;4993450;28;20338;-58
2023/12/10 12:16:52;;;;;;;35.42;5.18;;;;;;;;;;4996840;28;20053;-59
2023/12/10 12:19:24;;;;;;;36.50;5.00;;;;;;;;;;4999190;28;20033;-58
2023/12/10 12:21:50;;;;;;;32.08;5.20;;;;;;;;;;5001416;28;20046;-59
2023/12/10 12:24:16;;;;;;;33.83;4.88;;;;;;;;;;4997401;28;20038;-59
2023/12/10 12:26:42;;;;;;;31.83;5.10;;;;;;;;;;5003311;28;20420;-58
2023/12/10 12:29:08;;;;;;;28.42;4.97;;;;;;;;;;5003259;28;20056;-59
2023/12/10 12:31:34;;;;;;;32.22;5.25;;;;;;;;;;5000445;28;20034;-57
2023/12/10 12:34:00;;;;;;;29.33;4.97;;;;;;;;;;5001813;28;20045;-57
2023/12/10 12:36:26;;;;;;;38.83;6.30;;;;;;;;;;4999802;28;20056;-56
2023/12/10 12:38:52;;;;;;;31.33;5.32;;;;;;;;;;4998425;28;20503;-58
2023/12/10 12:41:18;;;;;;;31.17;5.57;;;;;;;;;;5001778;28;20045;-58
2023/12/10 12:43:44;;;;;;;43.88;6.03;;;;;;;;;;4999705;28;20038;-57
2023/12/10 12:46:10;;;;;;;36.22;5.65;;;;;;;;;;4998093;28;20449;-58
2023/12/10 12:48:36;;;;;;;33.85;5.68;;;;;;;;;;5003226;28;20030;-59
2023/12/10 12:51:02;;;;;;;46.20;6.50;;;;;;;;;;4996075;28;20048;-58
2023/12/10 12:53:28;;;;;;;42.35;5.53;;;;;;;;;;5003467;28;20053;-59
2023/12/10 12:55:54;;;;;;;31.15;5.85;;;;;;;;;;5002355;28;20045;-58
2023/12/10 12:58:20;;;;;;;37.30;6.05;;;;;;;;;;4996566;28;20045;-59
2023/12/10 13:00:46;;;;;;;45.72;6.20;;;;;;;;;;4996414;28;20042;-59
2023/12/10 13:03:12;;;;;;;39.55;6.72;;;;;;;;;;4998903;28;20026;-58
2023/12/10 13:05:38;;;;;;;37.50;5.90;;;;;;;;;;5001075;28;20034;-57
2023/12/10 13:08:04;;;;;;;42.60;6.50;;;;;;;;;;4998716;28;20132;-58
2023/12/10 13:10:30;;;;;;;43.92;5.70;;;;;;;;;;5000133;28;20043;-57
2023/12/10 13:12:56;;;;;;;33.63;5.95;;;;;;;;;;4997078;28;20136;-59
2023/12/10 13:15:22;;;;;;;39.60;6.53;;;;;;;;;;4999777;28;20685;-59
2023/12/10 13:17:48;;;;;;;34.65;6.40;;;;;;;;;;4999830;28;20366;-58
2023/12/10 13:20:14;;;;;;;41.70;6.18;;;;;;;;;;4998958;28;20205;-58
2023/12/10 13:22:40;;;;;;;33.20;7.55;;;;;;;;;;5000109;28;20511;-58
2023/12/10 13:25:06;;;;;;;44.40;6.53;;;;;;;;;;4999999;28;20053;-59
2023/12/10 13:27:32;;;;;;;40.38;5.78;;;;;;;;;;5002435;28;20395;-59
2023/12/10 13:29:58;;;;;;;47.00;7.05;;;;;;;;;;4999574;28;20382;-59
2023/12/10 13:32:24;;;;;;;42.05;6.95;;;;;;;;;;5002515;28;20045;-59
2023/12/10 13:34:50;;;;;;;38.95;6.85;;;;;;;;;;5002719;28;20544;-59
2023/12/10 13:37:16;;;;;;;58.85;7.18;;;;;;;;;;4999422;28;20041;-58
2023/12/10 13:39:42;;;;;;;42.45;6.60;;;;;;;;;;5000642;28;20349;-59
2023/12/10 13:42:08;;;;;;;46.65;6.55;;;;;;;;;;5000317;28;20133;-59
2023/12/10 13:44:34;;;;;;;41.20;6.50;;;;;;;;;;5001002;28;20034;-59
2023/12/10 13:47:00;;;;;;;40.50;6.40;;;;;;;;;;5003948;28;20136;-59
2023/12/10 13:49:26;;;;;;;44.92;6.80;;;;;;;;;;4997150;28;20045;-59
2023/12/10 13:51:52;;;;;;;37.67;6.03;;;;;;;;;;5000471;28;20127;-59
2023/12/10 13:54:18;;;;;;;41.58;6.50;;;;;;;;;;4988851;28;20037;-58
2023/12/10 13:56:44;;;;;;;41.20;5.65;;;;;;;;;;4995188;28;20049;-59
2023/12/10 13:59:10;;;;;;;31.55;5.85;;;;;;;;;;4992794;28;20077;-58
2023/12/10 14:01:36;;;;;;;34.92;5.97;;;;;;;;;;4997616;28;20479;-55
2023/12/10 14:04:03;;;;;;;50.25;7.22;;;;;;;;;;4996807;28;20042;-56
2023/12/10 14:06:29;;;;;;;42.20;6.45;;;;;;;;;;4999164;28;20132;-56
2023/12/10 14:08:55;;;;;;;41.65;6.50;;;;;;;;;;4998876;28;20070;-56
2023/12/10 14:11:21;;;;;;;50.58;6.45;;;;;;;;;;4994074;28;20129;-58
2023/12/10 14:13:47;;;;;;;44.42;5.95;;;;;;;;;;4996934;28;20048;-58
2023/12/10 14:16:13;;;;;;;38.53;5.95;;;;;;;;;;4992085;28;20030;-58
2023/12/10 14:18:39;;;;;;;41.42;6.30;;;;;;;;;;4995545;28;20151;-57
2023/12/10 14:21:05;;;;;;;44.15;6.10;;;;;;;;;;5002137;28;21268;-57
2023/12/10 14:23:31;;;;;;;31.00;5.57;;;;;;;;;;4999023;28;20044;-59
2023/12/10 14:25:57;;;;;;;39.80;5.88;;;;;;;;;;4998427;28;20412;-58